Urb La Plata, Puerto Rico
Current Conditions -  °F | °C
As of 12:56 PM on Monday 22 Dec 2014 (Local Time) from TJSJ Reporting Station
Scattered Clouds Scattered Clouds  
Wind Chill: 84°   Ceiling: Unl
Heat Index: 90°   Visibility: 10mi
Dew Point: 73°   Wind: 15mph
Humidity: 69%   Direction: 50°NE
Pressure: 30.01"   Gusts: NA
Location:  18.2202°N, 66.2266°W
Report Text: TJSJ 221656Z 05013KT 10SM SCT055 SCT065 29/23 A3001 RMK AO2 SLP161 T02890228
Loading
Personal Weather Stations






























Interactive Weather Map New forecast layout! Learn more

10-Day Weather Forecast

Advertisements
Track Severe Weather on mobile